Shaftsbury Center, Vermont
Current Conditions -  °F | °C
As of 8:54 AM on Wednesday 28 Jan 2015 (Local Time) from KDDH Reporting Station
Light Snow Light Snow  
Wind Chill: -6°   Ceiling: 6000
Heat Index: 10°   Visibility: 8mi
Dew Point:   Wind: 14mph
Humidity: 67%   Direction: 310°NW
Pressure: 30.01"   Gusts: 23mph
Location:  42.9815°N, 73.2071°W
Report Text: KDDH 281354Z AUTO 31012G20KT 8SM -SN BKN060 OVC070 M12/M17 A3001 RMK AO2 SNB47 SLP181 P0000 T11221172
Loading
Personal Weather Stations






























Interactive Weather Map New forecast layout! Learn more

10-Day Weather Forecast

Advertisements
Track Severe Weather on mobile